createdAt,value
2018-07-12T00:02:15.390Z,19.70
2018-07-12T00:04:43.481Z,19.80
2018-07-12T00:07:12.335Z,19.80
2018-07-12T00:09:40.425Z,19.80
2018-07-12T00:12:08.512Z,19.70
2018-07-12T00:14:36.592Z,19.70
2018-07-12T00:17:04.679Z,19.70
2018-07-12T00:19:33.510Z,19.70
2018-07-12T00:22:01.595Z,19.80
2018-07-12T00:24:29.739Z,19.80
2018-07-12T00:26:57.853Z,19.90
2018-07-12T00:29:25.940Z,19.80
2018-07-12T00:34:22.959Z,19.70
2018-07-12T00:36:51.042Z,19.70
2018-07-12T00:39:19.131Z,19.60
2018-07-12T00:41:47.209Z,19.70
2018-07-12T00:44:15.304Z,19.60
2018-07-12T00:46:43.382Z,19.50
2018-07-12T00:49:11.471Z,19.50
2018-07-12T00:51:39.558Z,19.60
2018-07-12T00:54:07.650Z,19.40
2018-07-12T00:56:35.743Z,19.40
2018-07-12T00:59:03.858Z,19.50
2018-07-12T01:01:31.950Z,19.30
2018-07-12T01:04:00.051Z,19.40
2018-07-12T01:06:28.149Z,19.50
2018-07-12T01:08:56.231Z,19.50
2018-07-12T01:11:24.325Z,19.50
2018-07-12T01:13:52.420Z,19.50
2018-07-12T01:16:20.502Z,19.50
2018-07-12T01:21:28.572Z,19.60
2018-07-12T01:23:56.671Z,19.70
2018-07-12T01:26:24.776Z,19.60
2018-07-12T01:28:52.873Z,19.60
2018-07-12T01:31:20.952Z,19.60
2018-07-12T01:33:49.041Z,19.60
2018-07-12T01:36:17.131Z,19.60
2018-07-12T01:38:45.221Z,19.70
2018-07-12T01:41:14.058Z,19.70
2018-07-12T01:43:42.147Z,19.70
2018-07-12T01:46:10.237Z,19.70
2018-07-12T01:48:38.324Z,19.70
2018-07-12T01:51:06.414Z,19.50
2018-07-12T01:53:34.494Z,19.60
2018-07-12T01:56:02.576Z,19.50
2018-07-12T01:58:30.683Z,19.50
2018-07-12T02:00:58.763Z,19.50
2018-07-12T02:03:26.857Z,19.40
2018-07-12T02:05:54.940Z,19.30
2018-07-12T02:08:23.029Z,19.40
2018-07-12T02:10:51.114Z,19.20
2018-07-12T02:13:19.206Z,19.10
2018-07-12T02:15:47.286Z,19.00
2018-07-12T02:18:15.373Z,18.80
2018-07-12T02:20:43.465Z,18.70
2018-07-12T02:23:11.570Z,18.60
2018-07-12T02:25:39.648Z,18.60
2018-07-12T02:28:07.742Z,18.60
2018-07-12T02:30:35.840Z,18.50
2018-07-12T02:35:32.869Z,18.50
2018-07-12T02:38:00.951Z,18.60
2018-07-12T02:40:29.044Z,18.50
2018-07-12T02:42:57.141Z,18.50
2018-07-12T02:45:25.988Z,18.40
2018-07-12T02:47:54.079Z,18.60
2018-07-12T02:50:22.163Z,18.60
2018-07-12T02:52:50.251Z,18.70
2018-07-12T02:55:19.079Z,18.60
2018-07-12T02:57:47.167Z,18.60
2018-07-12T03:00:15.248Z,18.60
2018-07-12T03:02:43.368Z,18.70
2018-07-12T03:05:11.427Z,18.60
2018-07-12T03:07:39.498Z,18.60
2018-07-12T03:10:07.582Z,18.60
2018-07-12T03:12:35.672Z,18.50
2018-07-12T03:15:03.752Z,18.60
2018-07-12T03:17:31.837Z,18.60
2018-07-12T03:19:59.932Z,18.50
2018-07-12T03:22:28.020Z,18.50
2018-07-12T03:24:56.101Z,18.40
2018-07-12T03:27:24.180Z,18.40
2018-07-12T03:29:52.270Z,18.50
2018-07-12T03:32:20.358Z,18.50
2018-07-12T03:34:48.451Z,18.50
2018-07-12T03:37:16.529Z,18.40
2018-07-12T03:39:44.616Z,18.40
2018-07-12T03:42:12.705Z,18.40
2018-07-12T03:44:40.783Z,18.40
2018-07-12T03:47:08.869Z,18.40
2018-07-12T03:49:37.710Z,18.50
2018-07-12T03:52:05.807Z,18.50
2018-07-12T03:54:33.893Z,18.50
2018-07-12T03:57:01.977Z,18.50
2018-07-12T03:59:30.797Z,18.60
2018-07-12T04:01:58.890Z,18.60
2018-07-12T04:04:26.973Z,18.70
2018-07-12T04:06:55.063Z,18.80
2018-07-12T04:09:23.145Z,18.70
2018-07-12T04:11:51.224Z,18.70
2018-07-12T04:14:20.067Z,18.70
2018-07-12T04:16:48.162Z,18.80
2018-07-12T04:19:16.248Z,18.70
2018-07-12T04:24:13.300Z,18.70
2018-07-12T04:26:41.390Z,18.60
2018-07-12T04:29:09.485Z,18.60
2018-07-12T04:31:37.586Z,18.60
2018-07-12T04:34:05.663Z,18.70
2018-07-12T04:36:33.759Z,18.70
2018-07-12T04:39:01.839Z,18.70
2018-07-12T04:41:29.933Z,18.80
2018-07-12T04:43:58.035Z,18.80
2018-07-12T04:46:26.128Z,18.80
2018-07-12T04:48:54.225Z,18.80
2018-07-12T04:51:22.319Z,18.70
2018-07-12T04:53:50.426Z,18.80
2018-07-12T04:56:18.514Z,18.70
2018-07-12T04:58:46.615Z,18.70
2018-07-12T05:01:14.721Z,18.70
2018-07-12T05:03:43.563Z,18.80
2018-07-12T05:06:11.659Z,18.80
2018-07-12T05:08:39.744Z,18.90
2018-07-12T05:11:08.596Z,18.90
2018-07-12T05:13:36.685Z,18.80
2018-07-12T05:16:04.783Z,18.80
2018-07-12T05:18:32.873Z,18.80
2018-07-12T05:21:00.968Z,18.90
2018-07-12T05:23:29.053Z,18.80
2018-07-12T05:25:57.153Z,18.90
2018-07-12T05:28:25.257Z,18.90
2018-07-12T05:30:53.397Z,19.00
2018-07-12T05:33:21.458Z,19.00
2018-07-12T05:35:50.300Z,19.00
2018-07-12T05:38:19.135Z,19.00
2018-07-12T05:40:47.981Z,19.00
2018-07-12T05:43:16.834Z,19.10
2018-07-12T05:45:45.689Z,19.00
2018-07-12T05:48:14.530Z,19.00
2018-07-12T05:50:43.380Z,19.10
2018-07-12T05:53:12.229Z,19.10
2018-07-12T05:55:41.075Z,18.90
2018-07-12T05:58:10.660Z,18.80
2018-07-12T06:00:39.504Z,18.90
2018-07-12T06:03:08.356Z,18.90
2018-07-12T06:05:37.200Z,19.00
2018-07-12T06:08:06.090Z,18.90
2018-07-12T06:10:34.936Z,18.90
2018-07-12T06:13:03.780Z,18.90
2018-07-12T06:15:32.625Z,18.90
2018-07-12T06:18:01.489Z,19.10
2018-07-12T06:20:30.354Z,19.20
2018-07-12T06:22:59.188Z,19.40
2018-07-12T06:25:28.033Z,19.50
2018-07-12T06:27:57.455Z,19.70
2018-07-12T06:30:26.319Z,19.70
2018-07-12T06:32:55.162Z,19.80
2018-07-12T06:35:23.993Z,20.00
2018-07-12T06:37:52.952Z,20.10
2018-07-12T06:40:21.795Z,20.20
2018-07-12T06:42:50.629Z,20.50
2018-07-12T06:45:19.463Z,20.60
2018-07-12T06:47:48.316Z,20.60
2018-07-12T06:50:17.159Z,20.70
2018-07-12T06:52:46.007Z,20.90
2018-07-12T06:55:14.837Z,21.00
2018-07-12T06:57:43.700Z,21.00
2018-07-12T07:00:13.271Z,20.90
2018-07-12T07:02:42.121Z,20.90
2018-07-12T07:05:10.961Z,20.80
2018-07-12T07:07:39.816Z,20.70
2018-07-12T07:10:08.689Z,20.70
2018-07-12T07:12:38.249Z,20.80
2018-07-12T07:15:07.102Z,21.00
2018-07-12T07:17:35.935Z,21.00
2018-07-12T07:20:04.839Z,21.10
2018-07-12T07:22:33.638Z,21.20
2018-07-12T07:25:02.479Z,21.30
2018-07-12T07:27:31.323Z,21.30
2018-07-12T07:30:00.173Z,21.20
2018-07-12T07:32:29.092Z,21.30
2018-07-12T07:34:57.872Z,21.20
2018-07-12T07:37:26.697Z,21.10
2018-07-12T07:39:55.545Z,21.00
2018-07-12T07:42:24.391Z,20.70
2018-07-12T07:44:53.236Z,20.60
2018-07-12T07:47:22.081Z,20.60
2018-07-12T07:49:50.928Z,20.60
2018-07-12T07:52:19.761Z,20.70
2018-07-12T07:54:48.589Z,20.70
2018-07-12T07:57:18.180Z,20.80
2018-07-12T07:59:47.019Z,20.70
2018-07-12T08:02:15.873Z,20.80
2018-07-12T08:04:45.457Z,20.70
2018-07-12T08:07:14.309Z,20.80
2018-07-12T08:09:43.150Z,20.80
2018-07-12T08:12:11.988Z,20.90
2018-07-12T08:14:40.830Z,20.70
2018-07-12T08:17:09.664Z,20.80
2018-07-12T08:19:38.503Z,20.90
2018-07-12T08:22:07.342Z,20.80
2018-07-12T08:24:36.201Z,20.90
2018-07-12T08:27:05.044Z,21.20
2018-07-12T08:29:33.892Z,21.30
2018-07-12T08:32:03.473Z,21.10
2018-07-12T08:34:32.321Z,21.20
2018-07-12T08:37:01.219Z,21.40
2018-07-12T08:39:29.999Z,21.20
2018-07-12T08:41:58.845Z,21.20
2018-07-12T08:44:27.686Z,21.10
2018-07-12T08:46:56.533Z,21.10
2018-07-12T08:49:26.116Z,21.20
2018-07-12T08:51:54.965Z,21.50
2018-07-12T08:54:23.799Z,21.80
2018-07-12T08:56:52.656Z,21.80
2018-07-12T08:59:21.498Z,22.20
2018-07-12T09:01:50.334Z,21.90
2018-07-12T09:04:19.174Z,22.30
2018-07-12T09:06:48.011Z,22.60
2018-07-12T09:09:16.853Z,22.70
2018-07-12T09:11:46.442Z,22.60
2018-07-12T09:14:15.293Z,22.60
2018-07-12T09:16:44.130Z,22.70
2018-07-12T09:19:13.715Z,22.60
2018-07-12T09:21:42.595Z,22.60
2018-07-12T09:24:11.400Z,22.60
2018-07-12T09:26:40.251Z,22.60
2018-07-12T09:29:09.115Z,22.50
2018-07-12T09:31:38.677Z,22.60
2018-07-12T09:34:07.517Z,22.70
2018-07-12T09:36:36.365Z,22.90
2018-07-12T09:39:05.210Z,23.00
2018-07-12T09:41:34.059Z,23.10
2018-07-12T09:44:03.637Z,23.20
2018-07-12T09:46:32.477Z,23.10
2018-07-12T09:49:02.098Z,23.10
2018-07-12T09:51:30.915Z,23.10
2018-07-12T09:53:59.748Z,23.10
2018-07-12T09:56:28.668Z,23.00
2018-07-12T09:58:57.427Z,23.00
2018-07-12T10:01:27.025Z,22.80
2018-07-12T10:03:55.865Z,22.90
2018-07-12T10:06:24.719Z,23.10
2018-07-12T10:08:54.312Z,23.10
2018-07-12T10:11:23.175Z,23.10
2018-07-12T10:13:52.039Z,23.30
2018-07-12T10:16:20.883Z,23.20
2018-07-12T10:18:50.462Z,23.20
2018-07-12T10:21:19.308Z,23.30
2018-07-12T10:23:48.154Z,22.80
2018-07-12T10:26:16.994Z,23.00
2018-07-12T10:28:45.822Z,23.40
2018-07-12T10:31:14.683Z,23.10
2018-07-12T10:33:43.575Z,23.40
2018-07-12T10:36:12.580Z,24.00
2018-07-12T10:38:41.252Z,24.40
2018-07-12T10:41:10.092Z,24.30
2018-07-12T10:43:38.949Z,24.60
2018-07-12T10:46:07.795Z,24.50
2018-07-12T10:48:36.646Z,24.70
2018-07-12T10:51:05.478Z,24.80
2018-07-12T10:53:34.339Z,24.80
2018-07-12T10:56:03.178Z,24.90
2018-07-12T10:58:32.025Z,24.80
2018-07-12T11:01:01.605Z,24.50
2018-07-12T11:03:30.445Z,24.30
2018-07-12T11:05:59.298Z,24.30
2018-07-12T11:08:28.151Z,24.40
2018-07-12T11:10:57.257Z,24.50
2018-07-12T11:13:26.103Z,24.30
2018-07-12T11:15:54.954Z,24.20
2018-07-12T11:18:23.797Z,24.10
2018-07-12T11:20:52.629Z,24.30
2018-07-12T11:26:01.988Z,25.00
2018-07-12T11:28:30.827Z,25.20
2018-07-12T11:30:59.682Z,25.00
2018-07-12T11:33:29.271Z,24.80
2018-07-12T11:35:58.106Z,24.90
2018-07-12T11:38:26.978Z,25.30
2018-07-12T11:40:56.550Z,25.00
2018-07-12T11:43:25.395Z,25.40
2018-07-12T11:45:54.237Z,25.60
2018-07-12T11:48:23.092Z,25.60
2018-07-12T11:50:51.972Z,25.80
2018-07-12T11:53:20.776Z,25.90
2018-07-12T11:55:49.621Z,26.00
2018-07-12T11:58:18.453Z,26.20
2018-07-12T12:00:47.293Z,26.30
2018-07-12T12:03:16.136Z,25.90
2018-07-12T12:05:44.975Z,25.70
2018-07-12T12:08:13.817Z,25.70
2018-07-12T12:10:43.409Z,25.60
2018-07-12T12:13:12.263Z,25.50
2018-07-12T12:15:41.102Z,25.60
2018-07-12T12:18:10.690Z,25.90
2018-07-12T12:20:39.539Z,26.30
2018-07-12T12:23:08.382Z,25.80
2018-07-12T12:25:37.257Z,26.00
2018-07-12T12:28:06.091Z,26.00
2018-07-12T12:30:34.936Z,26.20
2018-07-12T12:33:03.785Z,26.40
2018-07-12T12:35:32.618Z,26.80
2018-07-12T12:38:01.466Z,27.00
2018-07-12T12:40:30.312Z,27.30
2018-07-12T12:42:59.150Z,26.90
2018-07-12T12:45:27.987Z,26.60
2018-07-12T12:47:57.566Z,26.40
2018-07-12T12:50:26.417Z,26.50
2018-07-12T12:52:55.266Z,26.00
2018-07-12T12:55:24.109Z,26.00
2018-07-12T12:57:52.941Z,26.30
2018-07-12T13:00:21.780Z,26.80
2018-07-12T13:02:50.630Z,27.10
2018-07-12T13:05:19.470Z,27.60
2018-07-12T13:07:48.308Z,27.00
2018-07-12T13:12:46.601Z,27.40
2018-07-12T13:15:15.438Z,27.70
2018-07-12T13:17:45.024Z,27.80
2018-07-12T13:20:13.877Z,27.40
2018-07-12T13:22:42.717Z,27.20
2018-07-12T13:25:12.323Z,27.00
2018-07-12T13:27:41.959Z,27.00
2018-07-12T13:30:10.757Z,27.30
2018-07-12T13:32:39.593Z,27.80
2018-07-12T13:35:08.435Z,28.10
2018-07-12T13:37:37.272Z,28.00
2018-07-12T13:40:06.117Z,27.70
2018-07-12T13:42:34.964Z,27.30
2018-07-12T13:45:03.814Z,27.30
2018-07-12T13:47:32.655Z,27.80
2018-07-12T13:50:01.509Z,27.70
2018-07-12T13:52:30.349Z,28.00
2018-07-12T13:54:59.947Z,28.00
2018-07-12T13:57:29.546Z,28.30
2018-07-12T13:59:58.380Z,28.60
2018-07-12T14:02:27.221Z,28.60
2018-07-12T14:04:56.120Z,28.70
2018-07-12T14:07:24.970Z,28.50
2018-07-12T14:09:53.814Z,28.30
2018-07-12T14:12:22.671Z,28.50
2018-07-12T14:14:51.517Z,28.40
2018-07-12T14:17:20.347Z,28.30
2018-07-12T14:19:49.182Z,28.10
2018-07-12T14:22:18.756Z,28.50
2018-07-12T14:24:47.592Z,29.10
2018-07-12T14:27:16.504Z,29.00
2018-07-12T14:29:45.287Z,29.10
2018-07-12T14:32:14.131Z,28.60
2018-07-12T14:34:42.965Z,28.80
2018-07-12T14:37:11.815Z,28.90
2018-07-12T14:39:41.386Z,28.70
2018-07-12T14:42:10.236Z,28.80
2018-07-12T14:44:39.824Z,29.10
2018-07-12T14:47:08.753Z,28.50
2018-07-12T14:49:37.556Z,28.20
2018-07-12T14:52:06.366Z,28.60
2018-07-12T14:54:35.223Z,29.10
2018-07-12T14:57:05.137Z,29.50
2018-07-12T14:59:33.975Z,29.50
2018-07-12T15:02:02.836Z,29.30
2018-07-12T15:04:31.667Z,29.60
2018-07-12T15:07:00.512Z,29.50
2018-07-12T15:09:29.353Z,29.40
2018-07-12T15:11:58.927Z,29.60
2018-07-12T15:14:27.757Z,29.60
2018-07-12T15:16:56.617Z,29.50
2018-07-12T15:19:25.492Z,29.40
2018-07-12T15:21:54.298Z,29.30
2018-07-12T15:24:23.138Z,28.80
2018-07-12T15:26:52.732Z,28.50
2018-07-12T15:29:21.630Z,28.50
2018-07-12T15:31:50.408Z,29.00
2018-07-12T15:34:19.334Z,29.20
2018-07-12T15:36:48.141Z,29.30
2018-07-12T15:39:16.994Z,29.40
2018-07-12T15:41:45.842Z,29.60
2018-07-12T15:44:14.690Z,29.60
2018-07-12T15:46:43.634Z,29.70
2018-07-12T15:49:12.439Z,30.10
2018-07-12T15:51:41.658Z,30.10
2018-07-12T15:54:10.453Z,30.10
2018-07-12T15:56:39.317Z,29.70
2018-07-12T15:59:08.197Z,30.10
2018-07-12T16:01:37.015Z,29.70
2018-07-12T16:04:05.858Z,29.50
2018-07-12T16:06:34.698Z,29.70
2018-07-12T16:09:04.291Z,29.70
2018-07-12T16:11:33.870Z,29.80
2018-07-12T16:14:02.719Z,29.70
2018-07-12T16:16:31.565Z,30.00
2018-07-12T16:19:00.412Z,30.10
2018-07-12T16:21:29.247Z,30.30
2018-07-12T16:23:58.087Z,29.80
2018-07-12T16:26:26.933Z,29.60
2018-07-12T16:28:55.795Z,29.80
2018-07-12T16:31:24.663Z,29.90
2018-07-12T16:33:53.496Z,30.00
2018-07-12T16:36:22.372Z,30.00
2018-07-12T16:38:51.207Z,30.10
2018-07-12T16:41:20.038Z,30.00
2018-07-12T16:43:48.879Z,29.90
2018-07-12T16:46:17.724Z,29.80
2018-07-12T16:48:46.564Z,29.80
2018-07-12T16:51:15.395Z,29.60
2018-07-12T16:53:44.252Z,29.40
2018-07-12T16:56:13.839Z,29.60
2018-07-12T16:58:42.678Z,29.70
2018-07-12T17:01:11.535Z,29.60
2018-07-12T17:03:41.131Z,29.50
2018-07-12T17:06:09.977Z,29.50
2018-07-12T17:08:38.823Z,29.60
2018-07-12T17:11:07.667Z,29.40
2018-07-12T17:13:36.514Z,29.50
2018-07-12T17:16:05.354Z,29.20
2018-07-12T17:18:34.201Z,29.20
2018-07-12T17:21:03.040Z,29.00
2018-07-12T17:23:31.907Z,28.80
2018-07-12T17:26:00.757Z,28.60
2018-07-12T17:28:29.591Z,28.40
2018-07-12T17:30:58.450Z,28.20
2018-07-12T17:33:27.447Z,28.10
2018-07-12T17:35:56.107Z,27.90
2018-07-12T17:38:24.951Z,27.90
2018-07-12T17:40:53.798Z,27.90
2018-07-12T17:43:22.647Z,27.60
2018-07-12T17:45:51.491Z,27.50
2018-07-12T17:48:20.342Z,27.40
2018-07-12T17:50:49.928Z,27.20
2018-07-12T17:53:18.780Z,27.10
2018-07-12T17:55:47.626Z,27.10
2018-07-12T17:58:16.461Z,27.00
2018-07-12T18:00:45.310Z,26.90
2018-07-12T18:03:14.160Z,26.90
2018-07-12T18:05:43.002Z,26.80
2018-07-12T18:08:11.849Z,26.70
2018-07-12T18:10:40.698Z,26.70
2018-07-12T18:13:09.541Z,26.60
2018-07-12T18:15:38.436Z,26.60
2018-07-12T18:18:07.287Z,26.50
2018-07-12T18:20:36.141Z,26.40
2018-07-12T18:23:04.975Z,26.40
2018-07-12T18:25:33.836Z,26.40
2018-07-12T18:28:02.687Z,26.30
2018-07-12T18:30:31.533Z,26.20
2018-07-12T18:33:00.383Z,26.30
2018-07-12T18:35:29.965Z,26.20
2018-07-12T18:37:58.823Z,26.30
2018-07-12T18:40:27.650Z,26.20
2018-07-12T18:42:56.508Z,26.10
2018-07-12T18:45:25.357Z,26.20
2018-07-12T18:47:54.185Z,26.10
2018-07-12T18:50:23.029Z,26.00
2018-07-12T18:52:52.827Z,25.90
2018-07-12T18:55:21.681Z,25.90
2018-07-12T18:57:50.537Z,25.80
2018-07-12T19:00:19.716Z,25.70
2018-07-12T19:02:49.306Z,25.70
2018-07-12T19:05:18.899Z,25.60
2018-07-12T19:07:47.734Z,25.60
2018-07-12T19:10:16.583Z,25.50
2018-07-12T19:12:45.430Z,25.40
2018-07-12T19:15:14.348Z,25.30
2018-07-12T19:17:43.143Z,25.20
2018-07-12T19:20:11.989Z,25.10
2018-07-12T19:22:40.841Z,25.00
2018-07-12T19:25:09.676Z,24.90
2018-07-12T19:27:38.544Z,25.00
2018-07-12T19:30:07.450Z,24.90
2018-07-12T19:32:36.301Z,24.90
2018-07-12T19:35:05.262Z,24.70
2018-07-12T19:37:34.040Z,24.60
2018-07-12T19:40:02.893Z,24.60
2018-07-12T19:42:31.731Z,24.50
2018-07-12T19:45:01.346Z,24.40
2018-07-12T19:47:30.921Z,24.40
2018-07-12T19:49:59.762Z,24.20
2018-07-12T19:52:28.626Z,24.20
2018-07-12T19:54:58.222Z,24.10
2018-07-12T19:57:27.150Z,24.10
2018-07-12T19:59:56.806Z,24.20
2018-07-12T20:02:25.664Z,24.20
2018-07-12T20:04:54.512Z,24.10
2018-07-12T20:07:23.388Z,24.10
2018-07-12T20:09:52.971Z,24.00
2018-07-12T20:12:21.815Z,24.00
2018-07-12T20:14:50.660Z,24.00
2018-07-12T20:17:19.535Z,24.00
2018-07-12T20:19:48.394Z,24.00
2018-07-12T20:22:17.236Z,24.00
2018-07-12T20:24:46.113Z,23.90
2018-07-12T20:27:14.934Z,24.00
2018-07-12T20:29:44.583Z,23.90
2018-07-12T20:32:13.439Z,23.90
2018-07-12T20:34:43.038Z,23.80
2018-07-12T20:37:12.669Z,23.80
2018-07-12T20:39:41.519Z,23.80
2018-07-12T20:42:10.364Z,23.70
2018-07-12T20:44:39.217Z,23.60
2018-07-12T20:47:08.809Z,23.60
2018-07-12T20:49:38.393Z,23.50
2018-07-12T20:52:07.267Z,23.50
2018-07-12T20:54:36.131Z,23.50
2018-07-12T20:57:05.709Z,23.40
2018-07-12T20:59:34.539Z,23.40
2018-07-12T21:02:03.400Z,23.20
2018-07-12T21:04:32.261Z,23.20
2018-07-12T21:07:01.116Z,23.20
2018-07-12T21:09:29.965Z,23.20
2018-07-12T21:11:58.864Z,23.10
2018-07-12T21:14:27.715Z,23.10
2018-07-12T21:16:56.554Z,23.00
2018-07-12T21:19:25.417Z,23.00
2018-07-12T21:21:54.288Z,22.90
2018-07-12T21:24:23.157Z,22.90
2018-07-12T21:26:52.001Z,22.90
2018-07-12T21:29:20.869Z,22.90
2018-07-12T21:31:49.706Z,22.70
2018-07-12T21:34:18.542Z,22.40
2018-07-12T21:36:47.394Z,22.10
2018-07-12T21:39:16.236Z,22.10
2018-07-12T21:41:45.077Z,22.10
2018-07-12T21:44:13.923Z,21.90
2018-07-12T21:46:42.767Z,22.00
2018-07-12T21:49:11.615Z,22.00
2018-07-12T21:51:40.495Z,22.00
2018-07-12T21:54:09.294Z,21.70
2018-07-12T21:56:38.887Z,21.80
2018-07-12T22:01:37.892Z,21.90
2018-07-12T22:04:06.730Z,21.90
2018-07-12T22:06:35.580Z,21.90
2018-07-12T22:09:04.415Z,21.70
2018-07-12T22:11:33.278Z,21.70
2018-07-12T22:14:02.261Z,21.60
2018-07-12T22:16:30.967Z,21.50
2018-07-12T22:18:59.829Z,21.50
2018-07-12T22:21:28.674Z,21.60
2018-07-12T22:23:57.509Z,21.50
2018-07-12T22:26:26.350Z,21.60
2018-07-12T22:28:55.193Z,21.70
2018-07-12T22:31:24.037Z,21.60
2018-07-12T22:33:52.908Z,21.60
2018-07-12T22:36:21.749Z,21.60
2018-07-12T22:38:50.606Z,21.60
2018-07-12T22:41:19.446Z,21.60
2018-07-12T22:43:49.036Z,21.40
2018-07-12T22:46:17.875Z,21.50
2018-07-12T22:48:46.786Z,21.50
2018-07-12T22:51:15.552Z,21.50
2018-07-12T22:53:44.386Z,21.50
2018-07-12T22:56:13.226Z,21.40
2018-07-12T22:58:42.060Z,21.30
2018-07-12T23:01:10.900Z,21.30
2018-07-12T23:03:40.476Z,21.30
2018-07-12T23:06:09.329Z,21.20
2018-07-12T23:08:38.171Z,21.20
2018-07-12T23:11:07.757Z,21.20
2018-07-12T23:13:36.595Z,21.30
2018-07-12T23:16:05.448Z,21.20
2018-07-12T23:18:34.297Z,21.10
2018-07-12T23:21:03.150Z,21.00
2018-07-12T23:23:32.728Z,20.90
2018-07-12T23:26:01.583Z,20.80
2018-07-12T23:28:30.428Z,20.70
2018-07-12T23:31:00.013Z,20.70
2018-07-12T23:33:28.885Z,20.70
2018-07-12T23:35:57.723Z,20.60
2018-07-12T23:38:26.565Z,20.60
2018-07-12T23:40:55.389Z,20.50
2018-07-12T23:43:24.986Z,20.50
2018-07-12T23:45:53.825Z,20.50
2018-07-12T23:48:22.658Z,20.40
2018-07-12T23:50:51.517Z,20.30
2018-07-12T23:53:20.354Z,20.10
2018-07-12T23:55:49.930Z,19.90
2018-07-12T23:58:18.780Z,20.00
